Time;durP1;ratioP1;P1;durP2;ratioP2;P2;SDS_P1;SDS_P2;PMS_P1;PMS_P2;Temp;Humidity;BMP_temperature;BMP_pressure;BME280_temperature;BME280_humidity;BME280_pressure;Samples;Min_cycle;Max_cycle;Signal;HPM_P1;HPM_P2
2021/01/31 00:01:41;;;;;;;26.30;21.30;;;-1.30;98.30;;;;;;5099614;23;20207;-79
2021/01/31 00:03:43;;;;;;;28.15;21.67;;;-1.20;98.30;;;;;;5100262;23;20204;-79
2021/01/31 00:05:47;;;;;;;26.77;20.73;;;-1.20;98.30;;;;;;5099556;23;20210;-80
2021/01/31 00:07:50;;;;;;;26.35;21.45;;;-1.30;98.30;;;;;;5099714;23;20219;-79
2021/01/31 00:09:52;;;;;;;30.80;24.00;;;-1.40;98.30;;;;;;5099257;23;20242;-79
2021/01/31 00:11:54;;;;;;;42.72;31.95;;;-1.40;98.30;;;;;;5091575;23;20282;-79
2021/01/31 00:13:56;;;;;;;39.97;29.70;;;-1.60;98.30;;;;;;5099064;23;20195;-79
2021/01/31 00:15:59;;;;;;;39.47;29.45;;;-1.70;98.30;;;;;;5099052;23;20670;-79
2021/01/31 00:18:02;;;;;;;39.33;28.88;;;-1.90;98.30;;;;;;5091001;23;20667;-79
2021/01/31 00:20:05;;;;;;;34.88;25.65;;;-2.30;98.30;;;;;;5099246;23;20274;-79
2021/01/31 00:22:08;;;;;;;35.50;27.00;;;-2.60;98.30;;;;;;5099641;23;20211;-79
2021/01/31 00:24:10;;;;;;;36.55;28.73;;;-2.80;98.30;;;;;;5099768;23;20546;-79
2021/01/31 00:26:12;;;;;;;37.95;29.60;;;-2.90;98.30;;;;;;5100046;23;20242;-80
2021/01/31 00:28:16;;;;;;;44.10;32.08;;;-3.00;98.30;;;;;;5099798;23;20195;-79
2021/01/31 00:30:23;;;;;;;39.90;30.10;;;-3.20;98.30;;;;;;5099910;23;20286;-79
2021/01/31 00:32:28;;;;;;;39.53;30.63;;;-3.40;98.30;;;;;;5099952;23;20205;-79
2021/01/31 00:34:30;;;;;;;37.95;28.40;;;-3.50;98.30;;;;;;5099968;23;20203;-79
2021/01/31 00:36:32;;;;;;;32.08;26.88;;;-3.60;98.30;;;;;;5099885;23;20253;-79
2021/01/31 00:38:35;;;;;;;33.88;25.65;;;-3.70;98.30;;;;;;5091362;23;20239;-79
2021/01/31 00:40:37;;;;;;;32.58;25.30;;;-3.70;98.30;;;;;;5100354;23;20206;-79
2021/01/31 00:42:40;;;;;;;30.75;24.45;;;-3.80;98.30;;;;;;5093234;23;20211;-79
2021/01/31 00:44:43;;;;;;;28.52;22.23;;;-3.80;98.30;;;;;;5099289;23;20536;-79
2021/01/31 00:46:46;;;;;;;26.70;22.00;;;-3.90;98.30;;;;;;5099880;23;20199;-78
2021/01/31 00:48:48;;;;;;;29.60;21.92;;;-4.00;98.30;;;;;;5091155;23;20209;-79
2021/01/31 00:50:50;;;;;;;24.83;20.63;;;-4.00;98.30;;;;;;5099216;23;20927;-79
2021/01/31 00:52:52;;;;;;;25.88;21.02;;;-4.10;98.30;;;;;;5099044;23;20226;-79
2021/01/31 00:54:55;;;;;;;23.33;19.20;;;-4.00;98.30;;;;;;5091193;23;20748;-79
2021/01/31 00:56:57;;;;;;;31.92;21.95;;;-4.00;98.30;;;;;;5099386;23;20218;-79
2021/01/31 00:58:59;;;;;;;27.48;20.95;;;-3.90;98.30;;;;;;5090686;23;20286;-78
2021/01/31 01:01:01;;;;;;;28.85;23.80;;;-3.90;98.30;;;;;;5099268;23;20790;-79
2021/01/31 01:03:05;;;;;;;30.58;24.20;;;-4.00;98.30;;;;;;5099330;23;20207;-78
2021/01/31 01:05:09;;;;;;;43.72;29.58;;;-4.00;98.30;;;;;;5100196;23;20207;-78
2021/01/31 01:07:11;;;;;;;37.00;27.27;;;-4.00;98.30;;;;;;5099484;23;20199;-78
2021/01/31 01:09:14;;;;;;;36.35;27.40;;;-4.00;98.30;;;;;;5099467;23;20218;-78
2021/01/31 01:11:16;;;;;;;32.65;27.40;;;-4.10;98.30;;;;;;5099097;23;20856;-78
2021/01/31 01:13:19;;;;;;;31.65;25.55;;;-4.10;98.30;;;;;;5091127;23;20211;-78
2021/01/31 01:15:24;;;;;;;42.03;27.90;;;-4.20;98.30;;;;;;5099068;23;20249;-78
2021/01/31 01:17:26;;;;;;;67.57;33.10;;;-4.10;98.30;;;;;;5098894;23;20559;-78
2021/01/31 01:19:29;;;;;;;64.53;33.72;;;-4.00;98.30;;;;;;5098479;23;20245;-78
2021/01/31 01:21:32;;;;;;;46.05;33.60;;;-4.00;98.30;;;;;;5091034;23;20207;-78
2021/01/31 01:23:34;;;;;;;43.78;32.05;;;-4.00;98.30;;;;;;5091551;23;20219;-79
2021/01/31 01:25:36;;;;;;;43.17;31.05;;;-4.00;98.30;;;;;;5099402;23;20238;-79
2021/01/31 01:27:39;;;;;;;41.97;31.17;;;-4.00;98.30;;;;;;5099436;23;20678;-79
2021/01/31 01:29:41;;;;;;;42.92;31.98;;;-4.00;98.30;;;;;;5090757;23;20222;-79
2021/01/31 01:31:43;;;;;;;43.90;32.70;;;-4.00;98.30;;;;;;5093349;23;20290;-79
2021/01/31 01:33:45;;;;;;;43.13;32.85;;;-4.00;98.30;;;;;;5101437;23;20203;-79
2021/01/31 01:35:47;;;;;;;44.17;32.90;;;-4.00;98.30;;;;;;5101613;23;20204;-79
2021/01/31 01:37:50;;;;;;;40.90;30.23;;;-4.10;98.30;;;;;;5101945;23;20651;-79
2021/01/31 01:39:52;;;;;;;37.15;29.15;;;-4.10;98.30;;;;;;5100955;23;20199;-79
2021/01/31 01:41:54;;;;;;;37.28;28.92;;;-4.10;98.30;;;;;;5093377;23;20239;-79
2021/01/31 01:43:57;;;;;;;40.28;31.08;;;-4.10;98.30;;;;;;5101672;23;20203;-79
2021/01/31 01:46:22;;;;;;;41.35;27.85;;;-4.10;98.30;;;;;;5100938;23;20199;-79
2021/01/31 01:48:24;;;;;;;39.65;28.92;;;-4.00;98.30;;;;;;5101362;23;20234;-79
2021/01/31 01:50:31;;;;;;;37.78;29.55;;;-4.00;98.30;;;;;;5100715;23;20520;-78
2021/01/31 01:52:37;;;;;;;40.75;30.67;;;-4.00;98.30;;;;;;5093347;23;20211;-78
2021/01/31 01:54:43;;;;;;;39.17;29.70;;;-4.00;98.30;;;;;;5100942;23;20227;-79
2021/01/31 01:56:49;;;;;;;41.65;30.48;;;-3.90;98.30;;;;;;5100531;23;20199;-78
2021/01/31 01:58:53;;;;;;;36.63;29.80;;;-3.90;98.30;;;;;;5099413;23;20223;-78
2021/01/31 02:00:59;;;;;;;39.05;29.58;;;-4.00;98.30;;;;;;5100067;23;20250;-79
2021/01/31 02:03:04;;;;;;;36.40;28.85;;;-4.00;98.30;;;;;;5100314;23;20670;-78
2021/01/31 02:05:11;;;;;;;36.72;29.23;;;-4.00;98.30;;;;;;5100375;23;20580;-79
2021/01/31 02:07:13;;;;;;;39.13;28.92;;;-3.90;98.30;;;;;;5101597;23;20255;-78
2021/01/31 02:09:16;;;;;;;37.25;29.60;;;-3.90;98.30;;;;;;5099807;23;20815;-78
2021/01/31 02:11:19;;;;;;;34.83;28.63;;;-3.90;98.30;;;;;;5101616;23;20316;-78
2021/01/31 02:13:21;;;;;;;36.65;26.95;;;-3.80;98.30;;;;;;5100066;23;20238;-78
2021/01/31 02:15:25;;;;;;;33.55;26.65;;;-3.70;98.30;;;;;;5099738;23;20873;-78
2021/01/31 02:17:40;;;;;;;33.60;26.17;;;-3.60;98.30;;;;;;5099889;23;20591;-79
2021/01/31 02:20:24;;;;;;;39.72;28.33;;;-3.60;98.30;;;;;;5099903;23;20301;-79
2021/01/31 02:23:14;;;;;;;36.63;27.17;;;-3.60;98.30;;;;;;5099768;23;20200;-78
2021/01/31 02:25:43;;;;;;;41.75;28.60;;;-3.60;98.30;;;;;;5099924;23;20283;-78
2021/01/31 02:28:17;;;;;;;34.50;27.20;;;-3.70;98.30;;;;;;5099941;23;20223;-79
2021/01/31 02:30:52;;;;;;;39.60;29.73;;;-3.70;98.30;;;;;;5076720;23;20214;-78
2021/01/31 02:33:36;;;;;;;40.65;28.48;;;-3.80;98.30;;;;;;5099736;23;20330;-79
2021/01/31 02:35:45;;;;;;;37.95;29.38;;;-3.90;98.30;;;;;;5064298;23;20203;-78
2021/01/31 02:37:56;;;;;;;35.60;26.27;;;-3.90;98.30;;;;;;5100027;23;20237;-79
2021/01/31 02:40:05;;;;;;;41.10;30.10;;;-4.00;98.30;;;;;;5099669;23;20603;-79
2021/01/31 02:42:21;;;;;;;35.47;27.75;;;-4.00;98.30;;;;;;5099901;23;20302;-78
2021/01/31 02:44:27;;;;;;;36.45;27.75;;;-4.10;98.30;;;;;;5099468;23;20199;-79
2021/01/31 02:46:33;;;;;;;43.30;29.85;;;-4.10;98.30;;;;;;5099504;23;20218;-78
2021/01/31 02:48:39;;;;;;;39.30;28.20;;;-4.20;98.30;;;;;;5100143;23;20279;-79
2021/01/31 02:50:46;;;;;;;34.67;28.33;;;-4.00;98.30;;;;;;5101513;23;20206;-79
2021/01/31 02:52:55;;;;;;;43.80;29.95;;;-4.00;98.30;;;;;;5091720;23;20538;-79
2021/01/31 02:55:02;;;;;;;40.10;30.55;;;-4.10;98.30;;;;;;5099918;23;20651;-79
2021/01/31 02:57:08;;;;;;;36.47;27.20;;;-4.00;98.30;;;;;;5100506;23;20245;-78
2021/01/31 02:59:15;;;;;;;36.35;28.50;;;-4.00;98.30;;;;;;5099480;23;20203;-79
2021/01/31 03:01:23;;;;;;;41.67;28.08;;;-4.10;98.30;;;;;;5099811;23;20563;-79
2021/01/31 03:03:29;;;;;;;34.25;26.05;;;-4.00;98.30;;;;;;5101824;23;20225;-78
2021/01/31 03:05:35;;;;;;;38.83;29.00;;;-4.00;98.30;;;;;;5093584;23;20207;-79
2021/01/31 03:07:46;;;;;;;38.17;28.23;;;-4.00;98.30;;;;;;5091022;23;20286;-78
2021/01/31 03:09:51;;;;;;;39.35;28.83;;;-4.00;98.30;;;;;;5099534;23;20286;-79
2021/01/31 03:12:00;;;;;;;38.78;28.05;;;-4.10;98.30;;;;;;5091429;23;20211;-78
2021/01/31 03:14:06;;;;;;;35.88;27.42;;;-4.10;98.30;;;;;;5099336;23;20237;-78
2021/01/31 03:16:12;;;;;;;35.35;26.90;;;-4.10;98.30;;;;;;5100066;23;20674;-78
2021/01/31 03:18:18;;;;;;;32.08;25.52;;;-4.10;98.30;;;;;;5090913;23;20211;-79
2021/01/31 03:20:24;;;;;;;36.92;27.08;;;-4.10;98.30;;;;;;5091754;23;20602;-78
2021/01/31 03:22:34;;;;;;;38.55;26.95;;;-4.10;98.30;;;;;;5091941;23;20208;-79
2021/01/31 03:24:41;;;;;;;35.33;27.48;;;-4.10;98.30;;;;;;5099992;23;20223;-79
2021/01/31 03:26:48;;;;;;;36.35;25.60;;;-4.10;98.30;;;;;;5099863;23;20218;-79
2021/01/31 03:28:51;;;;;;;39.42;27.08;;;-4.10;98.30;;;;;;5091594;23;20214;-79
2021/01/31 03:30:54;;;;;;;36.03;26.10;;;-4.20;98.30;;;;;;5099724;23;20261;-79
2021/01/31 03:33:01;;;;;;;34.22;25.77;;;-4.20;98.30;;;;;;5099636;23;20223;-79
2021/01/31 03:35:08;;;;;;;36.25;24.88;;;-4.20;98.30;;;;;;5091488;23;20293;-79
2021/01/31 03:37:12;;;;;;;34.88;26.52;;;-4.30;98.30;;;;;;5099458;23;20337;-79
2021/01/31 03:39:16;;;;;;;32.80;24.67;;;-4.30;98.30;;;;;;5099525;23;20218;-79
2021/01/31 03:41:22;;;;;;;32.13;24.42;;;-4.20;98.30;;;;;;5098981;23;20283;-78
2021/01/31 03:43:25;;;;;;;33.63;24.52;;;-4.20;98.30;;;;;;5099288;23;20226;-79
2021/01/31 03:45:30;;;;;;;32.25;23.58;;;-4.20;98.30;;;;;;5099309;23;20211;-78
2021/01/31 03:47:47;;;;;;;32.47;24.63;;;-4.20;98.30;;;;;;5099186;23;20286;-79
2021/01/31 03:49:54;;;;;;;30.98;22.88;;;-4.20;98.30;;;;;;5099518;23;20209;-79
2021/01/31 03:51:56;;;;;;;34.05;23.95;;;-4.20;98.30;;;;;;5100284;23;20209;-79
2021/01/31 03:53:59;;;;;;;32.40;23.80;;;-4.20;98.30;;;;;;5091673;23;20204;-79
2021/01/31 03:56:02;;;;;;;37.28;25.67;;;-4.20;98.30;;;;;;5091334;23;20637;-79
2021/01/31 03:58:07;;;;;;;30.33;23.67;;;-4.20;98.30;;;;;;5098784;23;20231;-79
2021/01/31 04:00:14;;;;;;;33.75;24.55;;;-4.30;98.30;;;;;;5091316;23;20211;-79
2021/01/31 04:02:22;;;;;;;31.15;24.75;;;-4.30;98.30;;;;;;5099152;23;20203;-79
2021/01/31 04:04:31;;;;;;;32.65;23.80;;;-4.30;98.30;;;;;;5099054;23;20208;-79
2021/01/31 04:06:37;;;;;;;32.85;23.27;;;-4.30;98.30;;;;;;5099360;23;20201;-79
2021/01/31 04:08:42;;;;;;;30.85;22.58;;;-4.40;98.30;;;;;;5100192;23;20203;-80
2021/01/31 04:10:44;;;;;;;33.00;24.67;;;-4.30;98.30;;;;;;5099422;23;20199;-79
2021/01/31 04:12:51;;;;;;;29.83;22.42;;;-4.30;98.30;;;;;;5099783;23;20210;-79
2021/01/31 04:14:57;;;;;;;31.25;23.52;;;-4.40;98.30;;;;;;5091944;23;20203;-79
2021/01/31 04:16:59;;;;;;;31.13;22.40;;;-4.30;98.30;;;;;;5099598;23;20530;-79
2021/01/31 04:19:01;;;;;;;32.58;24.15;;;-4.30;98.30;;;;;;5091151;23;20248;-79
2021/01/31 04:21:03;;;;;;;30.48;24.10;;;-4.30;98.30;;;;;;5099692;23;20274;-79
2021/01/31 04:23:06;;;;;;;31.10;23.60;;;-4.30;98.30;;;;;;5099382;23;20206;-79
2021/01/31 04:25:09;;;;;;;32.05;22.70;;;-4.20;98.30;;;;;;5099897;23;20483;-79
2021/01/31 04:27:11;;;;;;;31.75;23.90;;;-4.20;98.30;;;;;;5091744;23;20211;-79
2021/01/31 04:29:13;;;;;;;31.58;23.95;;;-4.20;98.30;;;;;;5099048;23;20219;-79
2021/01/31 04:31:16;;;;;;;34.08;24.48;;;-4.20;98.30;;;;;;5091255;23;20282;-79
2021/01/31 04:33:19;;;;;;;32.33;24.08;;;-4.30;98.30;;;;;;5099298;23;20260;-79
2021/01/31 04:35:21;;;;;;;35.25;24.30;;;-4.20;98.30;;;;;;5099532;23;20209;-79
2021/01/31 04:37:23;;;;;;;39.00;23.95;;;-4.20;98.30;;;;;;5099243;23;20204;-79
2021/01/31 04:39:26;;;;;;;31.23;22.67;;;-4.20;98.30;;;;;;5099619;23;20200;-79
2021/01/31 04:41:35;;;;;;;35.22;24.10;;;-4.20;98.30;;;;;;5099692;23;20681;-79
2021/01/31 04:43:38;;;;;;;37.15;24.25;;;-4.20;98.30;;;;;;5099339;23;20199;-78
2021/01/31 04:45:41;;;;;;;35.25;24.67;;;-4.20;98.30;;;;;;5098978;23;20658;-79
2021/01/31 04:47:55;;;;;;;33.10;23.80;;;-4.20;98.30;;;;;;5098593;23;20234;-79
2021/01/31 04:50:13;;;;;;;32.05;24.35;;;-4.10;98.30;;;;;;5098753;23;20199;-79
2021/01/31 04:52:30;;;;;;;34.92;25.70;;;-4.10;98.30;;;;;;5099774;23;20584;-79
2021/01/31 04:54:45;;;;;;;34.63;22.75;;;-4.10;98.30;;;;;;5099772;23;20231;-79
2021/01/31 04:56:58;;;;;;;33.95;24.55;;;-4.10;98.30;;;;;;5099188;23;20645;-79
2021/01/31 04:59:15;;;;;;;33.30;23.98;;;-4.10;98.30;;;;;;5098929;23;20239;-79
2021/01/31 05:01:24;;;;;;;34.35;24.77;;;-4.10;98.30;;;;;;5099434;23;20233;-80
2021/01/31 05:03:29;;;;;;;34.95;24.02;;;-4.10;98.30;;;;;;5099900;23;20748;-79
2021/01/31 05:05:37;;;;;;;37.08;26.08;;;-4.10;98.30;;;;;;5093348;23;20242;-80
2021/01/31 05:07:45;;;;;;;35.15;25.20;;;-4.20;98.30;;;;;;5101307;23;20589;-79
2021/01/31 05:09:47;;;;;;;36.45;25.15;;;-4.10;98.30;;;;;;5092744;23;20210;-79
2021/01/31 05:11:59;;;;;;;35.70;25.63;;;-4.10;98.30;;;;;;5092802;23;20222;-79
2021/01/31 05:14:07;;;;;;;36.13;25.90;;;-4.10;98.30;;;;;;5100560;23;20207;-79
2021/01/31 05:16:13;;;;;;;33.38;25.52;;;-4.10;98.30;;;;;;5100732;23;20198;-79
2021/01/31 05:18:17;;;;;;;35.75;25.88;;;-4.10;98.30;;;;;;5092276;23;20207;-79
2021/01/31 05:20:23;;;;;;;33.78;24.50;;;-4.10;98.30;;;;;;5092569;23;20207;-79
2021/01/31 05:22:29;;;;;;;39.30;26.77;;;-4.10;98.30;;;;;;5100642;23;20199;-79
2021/01/31 05:24:31;;;;;;;36.03;25.20;;;-4.10;98.30;;;;;;5100774;23;20207;-79
2021/01/31 05:26:37;;;;;;;39.80;26.95;;;-4.10;98.30;;;;;;5103065;23;20234;-79
2021/01/31 05:28:47;;;;;;;37.08;25.92;;;-4.10;98.30;;;;;;5100366;23;20207;-79
2021/01/31 05:30:50;;;;;;;37.15;26.48;;;-4.20;98.30;;;;;;5100539;23;20206;-79
2021/01/31 05:33:04;;;;;;;38.50;26.35;;;-4.10;98.30;;;;;;5092452;23;20214;-79
2021/01/31 05:35:23;;;;;;;41.03;25.73;;;-4.00;98.30;;;;;;5100519;23;20207;-80
2021/01/31 05:37:29;;;;;;;39.35;27.80;;;-4.00;98.30;;;;;;5100213;23;20206;-80
2021/01/31 05:39:40;;;;;;;35.97;27.35;;;-4.00;98.30;;;;;;5099965;23;20207;-79
2021/01/31 05:41:47;;;;;;;38.28;29.45;;;-4.00;98.30;;;;;;5101256;23;20202;-80
2021/01/31 05:43:56;;;;;;;34.47;25.65;;;-3.90;98.30;;;;;;5100299;23;20208;-79
2021/01/31 05:46:16;;;;;;;34.72;24.83;;;-3.70;98.30;;;;;;5092583;23;20206;-80
2021/01/31 05:48:25;;;;;;;32.65;23.63;;;-3.70;98.30;;;;;;5100403;23;20531;-80
2021/01/31 05:50:33;;;;;;;33.42;23.48;;;-3.50;98.30;;;;;;5100109;23;20199;-80
2021/01/31 05:52:36;;;;;;;34.47;23.85;;;-3.40;98.30;;;;;;5100623;23;20230;-80
2021/01/31 05:54:40;;;;;;;34.67;23.80;;;-3.40;98.30;;;;;;5100387;23;20207;-80
2021/01/31 05:56:44;;;;;;;32.45;23.17;;;-3.50;98.30;;;;;;5100379;23;20258;-80
2021/01/31 05:58:46;;;;;;;32.30;23.83;;;-3.60;98.30;;;;;;5100347;23;20286;-80
2021/01/31 06:01:03;;;;;;;30.58;22.95;;;-3.60;98.30;;;;;;5100090;23;20583;-79
2021/01/31 06:03:06;;;;;;;35.90;23.70;;;-3.50;98.30;;;;;;5092731;23;20243;-79
2021/01/31 06:05:12;;;;;;;34.17;24.88;;;-3.50;98.30;;;;;;5100554;23;20283;-80
2021/01/31 06:07:21;;;;;;;32.03;22.80;;;-3.50;98.30;;;;;;5092394;23;20577;-80
2021/01/31 06:09:36;;;;;;;34.78;23.35;;;-3.50;98.30;;;;;;5092359;23;20284;-80
2021/01/31 06:11:39;;;;;;;32.80;23.42;;;-3.50;98.30;;;;;;5101070;23;20227;-80
2021/01/31 06:13:41;;;;;;;35.10;23.15;;;-3.40;98.30;;;;;;5100793;23;20204;-80
2021/01/31 06:15:46;;;;;;;32.55;23.20;;;-3.30;98.30;;;;;;5100037;23;20203;-80
2021/01/31 06:17:57;;;;;;;31.98;22.73;;;-3.20;98.30;;;;;;5100366;23;20199;-80
2021/01/31 06:20:04;;;;;;;34.08;23.15;;;-3.00;98.30;;;;;;5100594;23;20203;-80
2021/01/31 06:22:07;;;;;;;29.60;21.75;;;-2.90;98.30;;;;;;5100039;23;20206;-80
2021/01/31 06:24:21;;;;;;;29.98;20.70;;;-2.80;98.30;;;;;;5100444;23;20255;-80
2021/01/31 06:26:25;;;;;;;30.00;23.20;;;-2.80;98.30;;;;;;5100835;23;20284;-80
2021/01/31 06:28:34;;;;;;;28.20;20.13;;;-2.80;98.30;;;;;;5100231;23;20222;-79
2021/01/31 06:30:39;;;;;;;30.90;22.30;;;-2.80;98.30;;;;;;5100501;23;20222;-80
2021/01/31 06:32:44;;;;;;;32.35;21.75;;;-2.90;98.30;;;;;;5092449;23;20211;-80
2021/01/31 06:34:48;;;;;;;31.63;22.75;;;-3.00;98.30;;;;;;5100466;23;20552;-79
2021/01/31 06:37:08;;;;;;;32.20;22.63;;;-3.00;98.30;;;;;;5100060;23;20306;-81
2021/01/31 06:39:29;;;;;;;33.75;23.65;;;-3.00;98.30;;;;;;5099809;23;20214;-79
2021/01/31 06:41:51;;;;;;;30.83;21.40;;;-3.00;98.30;;;;;;5100694;23;20535;-79
2021/01/31 06:44:04;;;;;;;34.58;23.60;;;-3.10;98.30;;;;;;5099499;23;20204;-79
2021/01/31 06:46:15;;;;;;;30.02;23.00;;;-3.20;98.30;;;;;;5099959;23;20207;-80
2021/01/31 06:48:35;;;;;;;32.15;23.50;;;-3.20;98.30;;;;;;5092111;23;20527;-79
2021/01/31 06:50:48;;;;;;;32.78;22.17;;;-3.20;98.30;;;;;;5092220;23;20214;-79
2021/01/31 06:53:05;;;;;;;32.17;22.67;;;-3.20;98.30;;;;;;5100057;23;20598;-79
2021/01/31 06:55:33;;;;;;;33.00;22.23;;;-3.20;98.30;;;;;;5100107;23;20696;-79
2021/01/31 06:57:56;;;;;;;35.75;22.58;;;-3.20;98.30;;;;;;5100416;23;20211;-79
2021/01/31 07:00:16;;;;;;;31.85;22.45;;;-3.30;98.30;;;;;;5100128;23;20196;-80
2021/01/31 07:02:43;;;;;;;35.25;23.73;;;-3.40;98.30;;;;;;5100439;23;20218;-79
2021/01/31 07:05:13;;;;;;;34.95;23.05;;;-3.30;98.30;;;;;;5100588;23;20211;-79
2021/01/31 07:08:15;;;;;;;36.97;23.73;;;-3.40;98.30;;;;;;5088737;23;20207;-79
2021/01/31 07:10:39;;;;;;;35.55;23.73;;;-3.40;98.30;;;;;;5099537;23;20207;-79
2021/01/31 07:12:52;;;;;;;31.90;23.23;;;-3.40;98.30;;;;;;5099892;23;20222;-79
2021/01/31 07:15:00;;;;;;;36.25;24.52;;;-3.40;98.30;;;;;;5100192;23;20195;-79
2021/01/31 07:17:16;;;;;;;35.25;26.10;;;-3.40;98.30;;;;;;5100878;23;20257;-79
2021/01/31 07:19:23;;;;;;;35.85;25.58;;;-3.30;98.30;;;;;;5100604;23;20215;-79
2021/01/31 07:21:30;;;;;;;37.28;23.65;;;-3.30;98.30;;;;;;5100797;23;20207;-79
2021/01/31 07:23:36;;;;;;;33.22;23.10;;;-3.30;98.30;;;;;;5099629;23;20201;-79
2021/01/31 07:25:42;;;;;;;30.40;21.52;;;-3.30;98.30;;;;;;5099564;23;20195;-78
2021/01/31 07:27:51;;;;;;;30.00;21.45;;;-3.30;98.30;;;;;;5099456;23;20197;-78
2021/01/31 07:30:02;;;;;;;31.75;22.10;;;-3.30;98.30;;;;;;5101012;23;20703;-78
2021/01/31 07:32:08;;;;;;;28.10;20.80;;;-3.20;98.30;;;;;;5101425;23;20218;-79
2021/01/31 07:34:17;;;;;;;28.92;20.70;;;-3.20;98.30;;;;;;5101189;23;20704;-79
2021/01/31 07:36:23;;;;;;;30.17;20.90;;;-3.10;98.30;;;;;;5101206;23;20222;-79
2021/01/31 07:38:32;;;;;;;31.20;21.13;;;-3.10;98.30;;;;;;5100709;23;20715;-80
2021/01/31 07:40:34;;;;;;;28.17;20.38;;;-3.10;98.30;;;;;;5093334;23;20712;-79
2021/01/31 07:42:39;;;;;;;29.65;19.48;;;-3.00;98.30;;;;;;5102052;23;20197;-79
2021/01/31 07:44:43;;;;;;;30.27;20.95;;;-3.00;98.30;;;;;;5101741;23;20240;-79
2021/01/31 07:46:45;;;;;;;30.08;20.83;;;-3.10;98.30;;;;;;5095390;23;20235;-79
2021/01/31 07:49:05;;;;;;;28.80;19.20;;;-3.00;98.30;;;;;;5104837;23;20223;-79
2021/01/31 07:51:09;;;;;;;26.63;19.40;;;-2.90;98.30;;;;;;5101251;23;20301;-79
2021/01/31 07:53:11;;;;;;;26.98;18.90;;;-2.80;98.30;;;;;;5100789;23;20729;-79
2021/01/31 07:55:23;;;;;;;25.13;18.38;;;-2.80;98.30;;;;;;5100622;23;20199;-80
2021/01/31 07:57:34;;;;;;;26.88;18.30;;;-2.70;98.30;;;;;;5101051;23;20280;-80
2021/01/31 07:59:39;;;;;;;30.10;20.60;;;-2.50;98.30;;;;;;5092228;23;20541;-80
2021/01/31 08:01:47;;;;;;;28.15;18.00;;;-2.50;98.30;;;;;;5101315;23;20199;-80
2021/01/31 08:03:49;;;;;;;28.08;17.95;;;-2.50;98.30;;;;;;5100894;23;20732;-80
2021/01/31 08:05:58;;;;;;;26.88;18.70;;;-2.60;98.30;;;;;;5101110;23;20229;-80
2021/01/31 08:08:06;;;;;;;24.73;16.95;;;-2.50;98.30;;;;;;5101708;23;20259;-80
2021/01/31 08:10:08;;;;;;;28.30;19.73;;;-2.50;98.30;;;;;;5093423;23;20207;-79
2021/01/31 08:12:12;;;;;;;27.95;19.48;;;-2.50;98.30;;;;;;5101658;23;20581;-79
2021/01/31 08:14:53;;;;;;;27.25;18.58;;;-2.40;98.30;;;;;;5101629;23;20230;-80
2021/01/31 08:16:56;;;;;;;27.40;17.48;;;-2.30;98.30;;;;;;5093653;23;20245;-80
2021/01/31 08:19:04;;;;;;;27.05;18.35;;;-2.30;98.30;;;;;;5101256;23;20257;-79
2021/01/31 08:21:06;;;;;;;27.90;17.27;;;-2.40;98.30;;;;;;5101255;23;20206;-81
2021/01/31 08:23:46;;;;;;;26.40;17.65;;;-2.40;98.30;;;;;;5103473;23;20209;-80
2021/01/31 08:25:56;;;;;;;31.17;19.92;;;-2.30;98.30;;;;;;5072336;23;20290;-79
2021/01/31 08:28:16;;;;;;;29.60;19.30;;;-2.40;98.30;;;;;;5103847;23;20296;-80
2021/01/31 08:30:27;;;;;;;29.38;19.20;;;-2.40;98.30;;;;;;5109356;23;20210;-79
2021/01/31 08:32:30;;;;;;;24.77;17.95;;;-2.40;98.30;;;;;;5109987;23;20203;-80
2021/01/31 08:35:10;;;;;;;28.27;17.98;;;-2.40;98.30;;;;;;5110681;23;20234;-80
2021/01/31 08:37:23;;;;;;;30.85;19.90;;;-2.30;98.30;;;;;;5111253;23;20203;-79
2021/01/31 08:39:31;;;;;;;27.02;17.50;;;-2.10;98.30;;;;;;5110571;23;20203;-79
2021/01/31 08:41:40;;;;;;;29.52;18.92;;;-2.00;98.30;;;;;;5101778;23;20206;-80
2021/01/31 08:43:44;;;;;;;28.00;18.17;;;-1.90;98.30;;;;;;5113548;23;20230;-81
2021/01/31 08:45:47;;;;;;;25.92;17.55;;;-1.90;98.30;;;;;;5115575;23;20207;-80
2021/01/31 08:47:51;;;;;;;24.65;17.77;;;-1.80;98.30;;;;;;5114343;23;20215;-80
2021/01/31 08:50:08;;;;;;;24.38;17.23;;;-1.60;98.30;;;;;;5101120;23;20641;-80
2021/01/31 08:52:14;;;;;;;24.95;16.45;;;-1.60;98.30;;;;;;5092936;23;20241;-80
2021/01/31 08:54:21;;;;;;;23.77;16.20;;;-1.60;98.30;;;;;;5099392;23;20308;-80
2021/01/31 08:56:28;;;;;;;28.92;20.05;;;-1.40;98.30;;;;;;5098721;23;20203;-79
2021/01/31 08:58:30;;;;;;;23.05;15.82;;;-1.20;98.30;;;;;;5099015;23;20230;-80
2021/01/31 09:00:32;;;;;;;22.95;14.48;;;-1.00;98.30;;;;;;5098579;23;20235;-80
2021/01/31 09:02:35;;;;;;;20.52;14.20;;;-1.00;98.30;;;;;;5099835;23;20219;-80
2021/01/31 09:04:40;;;;;;;17.83;14.02;;;-0.90;98.30;;;;;;5099273;23;20203;-80
2021/01/31 09:06:44;;;;;;;18.48;13.50;;;-1.00;98.30;;;;;;5099634;23;20246;-80
2021/01/31 09:08:53;;;;;;;18.10;13.10;;;-1.00;98.30;;;;;;5100129;23;20204;-80
2021/01/31 09:10:57;;;;;;;16.90;11.63;;;-0.90;98.30;;;;;;5092060;23;20285;-80
2021/01/31 09:13:12;;;;;;;19.70;15.50;;;-0.90;98.30;;;;;;5099903;23;20221;-80
2021/01/31 09:15:21;;;;;;;18.88;12.65;;;-1.00;98.30;;;;;;5099725;23;20207;-80
2021/01/31 09:17:26;;;;;;;16.35;11.85;;;-0.90;98.30;;;;;;5100402;23;20211;-80
2021/01/31 09:19:28;;;;;;;15.68;11.60;;;-0.90;98.30;;;;;;5099371;23;20258;-80
2021/01/31 09:21:33;;;;;;;16.05;11.48;;;-0.80;98.30;;;;;;5099552;23;20274;-80
2021/01/31 09:23:38;;;;;;;13.88;10.65;;;-0.70;98.30;;;;;;5100520;23;20203;-80
2021/01/31 09:25:41;;;;;;;17.58;11.60;;;-0.60;98.30;;;;;;5100552;23;20239;-80
2021/01/31 09:27:56;;;;;;;14.90;10.40;;;-0.40;98.30;;;;;;5101012;23;20203;-80
2021/01/31 09:30:01;;;;;;;16.55;11.30;;;-0.40;98.30;;;;;;5092395;23;20214;-79
2021/01/31 09:32:11;;;;;;;12.63;9.52;;;-0.30;98.30;;;;;;5099795;23;20266;-79
2021/01/31 09:34:13;;;;;;;10.77;8.88;;;-0.50;98.30;;;;;;5099931;23;20215;-79
2021/01/31 09:36:18;;;;;;;14.45;10.07;;;-0.70;98.30;;;;;;5099602;23;20226;-80
2021/01/31 09:38:25;;;;;;;15.75;9.75;;;-0.70;98.30;;;;;;5099376;23;20200;-80
2021/01/31 09:40:27;;;;;;;13.52;10.02;;;-0.80;98.30;;;;;;5099827;23;20235;-80
2021/01/31 09:42:31;;;;;;;13.70;9.43;;;-0.70;98.30;;;;;;5099566;23;20849;-79
2021/01/31 09:44:36;;;;;;;14.93;10.27;;;-0.80;98.30;;;;;;5099620;23;20223;-80
2021/01/31 09:46:40;;;;;;;13.30;9.57;;;-0.70;98.30;;;;;;5099186;23;20254;-80
2021/01/31 09:48:42;;;;;;;14.23;10.32;;;-0.40;98.30;;;;;;5098770;23;20275;-81
2021/01/31 09:50:51;;;;;;;13.23;10.52;;;-0.20;98.30;;;;;;5099645;23;20201;-80
2021/01/31 09:52:53;;;;;;;12.25;9.50;;;-0.10;98.30;;;;;;5093136;23;20243;-80
2021/01/31 09:54:56;;;;;;;33.70;19.55;;;0.00;98.30;;;;;;5101365;23;20740;-80
2021/01/31 09:57:01;;;;;;;14.52;9.55;;;0.00;98.30;;;;;;5100986;23;20232;-80
2021/01/31 09:59:03;;;;;;;25.38;16.67;;;0.00;98.30;;;;;;5100867;23;20680;-81
2021/01/31 10:01:18;;;;;;;13.20;9.30;;;-0.20;98.30;;;;;;5101278;23;20233;-80
2021/01/31 10:03:28;;;;;;;14.43;9.80;;;-0.30;98.30;;;;;;5101031;23;20217;-80
2021/01/31 10:05:30;;;;;;;15.02;10.13;;;-0.40;98.30;;;;;;5101563;23;20221;-80
2021/01/31 10:07:33;;;;;;;15.88;10.55;;;-0.60;98.30;;;;;;5101123;23;20221;-80
2021/01/31 10:09:38;;;;;;;13.10;9.68;;;-0.60;98.30;;;;;;5101949;23;20215;-80
2021/01/31 10:11:42;;;;;;;16.55;11.10;;;-0.60;98.30;;;;;;5101355;23;20211;-80
2021/01/31 10:13:47;;;;;;;16.77;10.63;;;-0.70;98.30;;;;;;5102200;23;20754;-80
2021/01/31 10:16:00;;;;;;;17.80;11.20;;;-0.60;98.30;;;;;;5093129;23;20286;-80
2021/01/31 10:18:02;;;;;;;17.13;11.63;;;-0.80;98.30;;;;;;5099933;23;20274;-80
2021/01/31 10:20:32;;;;;;;17.05;10.68;;;-0.70;98.30;;;;;;5100569;23;20682;-80
2021/01/31 10:22:34;;;;;;;17.48;11.02;;;-0.60;98.30;;;;;;5101020;23;20256;-80
2021/01/31 10:24:36;;;;;;;15.98;12.10;;;-0.20;98.30;;;;;;5100378;23;20209;-80
2021/01/31 10:26:40;;;;;;;15.15;11.80;;;0.20;98.30;;;;;;5100347;23;20258;-80
2021/01/31 10:28:47;;;;;;;15.93;11.38;;;0.60;98.30;;;;;;5100728;23;20531;-80
2021/01/31 10:30:50;;;;;;;15.60;10.88;;;0.80;98.30;;;;;;5100969;23;20200;-81
2021/01/31 10:32:57;;;;;;;15.50;10.43;;;1.10;98.30;;;;;;5100859;23;20264;-80
2021/01/31 10:35:02;;;;;;;13.35;10.10;;;1.00;98.30;;;;;;5102776;23;20209;-80
2021/01/31 10:37:15;;;;;;;16.17;10.32;;;1.30;98.30;;;;;;5100173;23;20203;-80
2021/01/31 10:39:25;;;;;;;13.23;9.63;;;1.40;98.30;;;;;;5099750;23;20234;-80
2021/01/31 10:41:34;;;;;;;15.65;9.75;;;1.40;98.30;;;;;;5099974;23;20542;-80
2021/01/31 10:43:39;;;;;;;13.80;10.98;;;1.20;98.30;;;;;;5099709;23;20202;-80
2021/01/31 10:45:41;;;;;;;15.00;11.15;;;1.20;98.30;;;;;;5099998;23;20278;-80
2021/01/31 10:47:45;;;;;;;11.45;9.23;;;1.10;98.30;;;;;;5100463;23;20223;-80
2021/01/31 10:49:50;;;;;;;12.88;9.25;;;1.10;98.30;;;;;;5099916;23;20203;-80